Penedo, Brazil
Current Conditions -  °F | °C
As of 9:00 AM on Sunday 23 Nov 2014 (Local Time) from SBAR Reporting Station
Scattered Clouds Scattered Clouds  
Wind Chill: 82°   Ceiling: Unl
Heat Index: 87°   Visibility: 6mi
Dew Point: 72°   Wind: 10mph
Humidity: 70%   Direction: 90°E
Pressure: 29.97"   Gusts: NA
Location:  10.27°S, 36.58°W
Report Text: SBAR 231200Z 09009KT 9999 SCT015 28/22 Q1015
Loading
Personal Weather Stations






























Interactive Weather Map New forecast layout! Learn more

10-Day Weather Forecast

Advertisements
Track Severe Weather on mobile